Погода Игнатово 2-ена неделю

Тверская область, Россия

26 мая-01 июня
  • 26мая
    Сегодня
    +6°
    +21°
    Практически безоблачно
    ВремяПогодаТемператураВлажностьДавлениеВетер, м/сВероятность осадков
    00:00Ясно и безоблачно+13°C50 %755 мм0.7 м/с2 %
    03:00Ясно и безоблачно+11°C65 %755 мм0.5 м/с2 %
    06:00Практически безоблачно+14°C82 %756 мм0.9 м/с2 %
    09:00Пасмурно, сплошная облачность+18°C73 %757 мм1.5 м/с12 %
    12:00Облачно с прояснениями+20°C63 %757 мм2.2 м/с36 %
    15:00Практически безоблачно+21°C49 %757 мм2.3 м/с24 %
    18:00Практически безоблачно+20°C36 %757 мм2.2 м/с6 %
    21:00Ясно и безоблачно+13°C50 %758 мм0.7 м/с2 %
  • 27мая
    Понедельник
    +7°
    +23°
    Практически безоблачно
    ВремяПогодаТемператураВлажностьДавлениеВетер, м/сВероятность осадков
    00:00Ясно и безоблачно+9°C57 %759 мм0.7 м/с2 %
    03:00Ясно и безоблачно+7°C63 %760 мм0.5 м/с2 %
    06:00Ясно и безоблачно+10°C62 %760 мм0.7 м/с2 %
    09:00Ясно и безоблачно+17°C45 %760 мм1.1 м/с2 %
    12:00Практически безоблачно+21°C41 %760 мм1.7 м/с2 %
    15:00Практически безоблачно+22°C40 %759 мм1.5 м/с2 %
    18:00Ясно и безоблачно+23°C38 %757 мм1.5 м/с2 %
    21:00Ясно и безоблачно+15°C53 %757 мм0.4 м/с2 %
  • 28мая
    Вторник
    +11°
    +27°
    Ясно и безоблачно
    ВремяПогодаТемператураВлажностьДавлениеВетер, м/сВероятность осадков
    00:00Ясно и безоблачно+11°C60 %756 мм0.6 м/с2 %
    03:00Ясно и безоблачно+9°C70 %756 мм0.4 м/с2 %
    06:00Ясно и безоблачно+12°C69 %756 мм0.9 м/с2 %
    09:00Ясно и безоблачно+21°C52 %756 мм1.2 м/с2 %
    12:00Ясно и безоблачно+25°C39 %755 мм2.0 м/с2 %
    15:00Ясно и безоблачно+25°C32 %754 мм1.7 м/с2 %
    18:00Ясно и безоблачно+26°C33 %753 мм1.3 м/с2 %
    21:00Ясно и безоблачно+18°C49 %753 мм0.7 м/с2 %
  • 29мая
    Среда
    +11°
    +27°
    Небольшая облачность
    ВремяПогодаТемператураВлажностьДавлениеВетер, м/сВероятность осадков
    00:00Ясно и безоблачно+14°C60 %752 мм0.5 м/с2 %
    03:00Практически безоблачно+11°C74 %752 мм0.4 м/с2 %
    06:00Небольшая облачность+15°C70 %752 мм0.7 м/с2 %
    09:00Ясно и безоблачно+23°C54 %751 мм1.1 м/с2 %
    12:00Практически безоблачно+26°C35 %751 мм1.6 м/с14 %
    15:00Небольшая облачность+26°C34 %750 мм1.7 м/с26 %
    18:00Практически безоблачно+26°C37 %749 мм1.4 м/с46 %
    21:00Ясно и безоблачно+19°C58 %749 мм0.2 м/с22 %
Мы используем cookies
Соглашаюсь